Terminal Aerodrome Forecast
Issued by NWS

Home | Current Version | Previous Version | Text Only | Print | Product List | Glossary On
Versions: 1 2 3 4 5 6 7 8 9 10 11 12 13
000
FTUS44 KSJT 251720
TAFBBD
TAF
KBBD 251720Z 2518/2618 17007KT P6SM OVC020
     FM251900 19008KT P6SM BKN035
     FM252100 19009KT P6SM SCT050 BKN250
     FM260700 16008KT P6SM VCTS BKN050CB
     FM261000 16009KT P6SM BKN025
      AMD NOT SKED=

USA.gov is the U.S. government's official web portal to all federal, state and local government web resources and services.